createdAt,value
2022-11-21T00:01:01.262Z,1.20
2022-11-21T00:03:29.734Z,1.53
2022-11-21T00:05:58.061Z,1.63
2022-11-21T00:08:26.378Z,1.80
2022-11-21T00:10:54.707Z,1.67
2022-11-21T00:13:24.361Z,1.73
2022-11-21T00:15:52.708Z,2.40
2022-11-21T00:18:21.072Z,1.90
2022-11-21T00:20:49.364Z,1.77
2022-11-21T00:23:17.673Z,1.90
2022-11-21T00:25:46.001Z,1.73
2022-11-21T00:28:14.337Z,1.50
2022-11-21T00:30:44.030Z,1.43
2022-11-21T00:33:12.562Z,1.90
2022-11-21T00:35:40.994Z,2.00
2022-11-21T00:38:09.344Z,1.93
2022-11-21T00:40:37.697Z,1.60
2022-11-21T00:43:06.060Z,1.43
2022-11-21T00:45:34.597Z,1.57
2022-11-21T00:48:04.558Z,1.77
2022-11-21T00:50:32.905Z,1.60
2022-11-21T00:53:01.437Z,1.87
2022-11-21T00:55:29.719Z,1.77
2022-11-21T00:57:58.330Z,1.70
2022-11-21T01:00:26.699Z,1.70
2022-11-21T01:02:55.014Z,1.70
2022-11-21T01:05:24.710Z,1.90
2022-11-21T01:07:53.059Z,1.50
2022-11-21T01:10:21.476Z,1.00
2022-11-21T01:12:49.831Z,1.17
2022-11-21T01:15:18.211Z,1.20
2022-11-21T01:17:46.508Z,1.20
2022-11-21T01:20:15.206Z,1.17
2022-11-21T01:22:45.066Z,1.30
2022-11-21T01:25:13.478Z,1.43
2022-11-21T01:27:41.856Z,1.00
2022-11-21T01:30:11.881Z,1.30
2022-11-21T01:32:42.260Z,1.03
2022-11-21T01:35:11.083Z,1.30
2022-11-21T01:37:39.797Z,1.47
2022-11-21T01:40:10.991Z,1.47
2022-11-21T01:42:53.623Z,1.30
2022-11-21T01:45:55.359Z,1.17
2022-11-21T01:48:29.648Z,1.07
2022-11-21T01:51:03.923Z,1.30
2022-11-21T01:53:32.536Z,1.40
2022-11-21T01:56:02.692Z,1.30
2022-11-21T01:58:32.978Z,1.10
2022-11-21T02:01:01.416Z,1.20
2022-11-21T02:03:33.969Z,0.90
2022-11-21T02:06:02.407Z,0.70
2022-11-21T02:08:31.670Z,0.70
2022-11-21T02:11:10.538Z,0.40
2022-11-21T02:13:39.433Z,0.30
2022-11-21T02:16:08.972Z,0.37
2022-11-21T02:18:37.324Z,0.30
2022-11-21T02:21:14.525Z,0.23
2022-11-21T02:23:50.417Z,0.27
2022-11-21T02:26:20.194Z,0.40
2022-11-21T02:28:48.561Z,0.40
2022-11-21T02:31:16.909Z,0.50
2022-11-21T02:33:45.282Z,0.40
2022-11-21T02:36:40.297Z,0.30
2022-11-21T02:39:11.760Z,0.30
2022-11-21T02:41:46.946Z,0.20
2022-11-21T02:44:23.658Z,0.30
2022-11-21T02:46:53.464Z,0.20
2022-11-21T02:49:31.565Z,0.30
2022-11-21T02:51:59.866Z,0.30
2022-11-21T02:54:28.474Z,0.20
2022-11-21T02:56:58.613Z,0.27
2022-11-21T02:59:26.896Z,0.30
2022-11-21T03:01:57.533Z,0.10
2022-11-21T03:04:26.114Z,0.30
2022-11-21T03:06:54.646Z,0.20
2022-11-21T03:09:23.676Z,0.10
2022-11-21T03:11:52.018Z,0.10
2022-11-21T03:14:21.693Z,0.30
2022-11-21T03:16:50.007Z,0.50
2022-11-21T03:19:18.340Z,0.80
2022-11-21T03:21:46.653Z,0.90
2022-11-21T03:24:16.219Z,0.90
2022-11-21T03:26:44.913Z,1.20
2022-11-21T03:29:13.256Z,0.90
2022-11-21T03:31:43.266Z,1.20
2022-11-21T03:34:11.921Z,0.60
2022-11-21T03:36:40.225Z,0.90
2022-11-21T03:39:09.590Z,0.80
2022-11-21T03:41:37.908Z,0.83
2022-11-21T03:44:08.812Z,0.53
2022-11-21T03:46:38.971Z,0.70
2022-11-21T03:49:09.566Z,1.13
2022-11-21T03:51:38.314Z,1.23
2022-11-21T03:54:07.151Z,1.07
2022-11-21T03:56:35.809Z,1.00
2022-11-21T03:59:04.711Z,1.23
2022-11-21T04:01:36.553Z,1.37
2022-11-21T04:04:05.897Z,1.50
2022-11-21T04:06:44.484Z,1.47
2022-11-21T04:09:12.928Z,1.40
2022-11-21T04:11:41.261Z,1.40
2022-11-21T04:14:09.589Z,1.70
2022-11-21T04:16:37.990Z,1.40
2022-11-21T04:19:06.301Z,1.37
2022-11-21T04:21:34.576Z,1.83
2022-11-21T04:24:04.337Z,1.60
2022-11-21T04:26:33.015Z,1.40
2022-11-21T04:29:01.359Z,1.63
2022-11-21T04:31:30.033Z,1.43
2022-11-21T04:33:58.332Z,1.20
2022-11-21T04:36:26.785Z,1.43
2022-11-21T04:38:55.126Z,1.30
2022-11-21T04:41:24.807Z,1.20
2022-11-21T04:43:53.181Z,1.17
2022-11-21T04:46:21.480Z,1.23
2022-11-21T04:48:50.112Z,1.10
2022-11-21T04:51:18.437Z,1.50
2022-11-21T04:53:46.742Z,1.60
2022-11-21T04:56:16.647Z,1.50
2022-11-21T04:58:46.768Z,1.37
2022-11-21T05:01:15.182Z,1.50
2022-11-21T05:03:43.765Z,3.47
2022-11-21T05:06:12.209Z,2.90
2022-11-21T05:08:40.487Z,0.97
2022-11-21T05:11:26.389Z,0.80
2022-11-21T05:13:56.177Z,0.47
2022-11-21T05:16:24.449Z,0.30
2022-11-21T05:18:52.810Z,0.30
2022-11-21T05:21:21.143Z,0.30
2022-11-21T05:23:49.513Z,0.60
2022-11-21T05:26:17.849Z,0.63
2022-11-21T05:28:47.685Z,0.27
2022-11-21T05:31:17.680Z,0.70
2022-11-21T05:33:45.985Z,0.50
2022-11-21T05:36:14.497Z,0.50
2022-11-21T05:38:43.117Z,0.40
2022-11-21T05:41:11.449Z,0.43
2022-11-21T05:43:48.014Z,0.60
2022-11-21T05:46:19.065Z,0.43
2022-11-21T05:48:48.277Z,0.40
2022-11-21T05:51:17.576Z,0.80
2022-11-21T05:53:46.435Z,0.73
2022-11-21T05:56:16.629Z,1.70
2022-11-21T05:58:45.239Z,0.50
2022-11-21T06:01:15.619Z,0.20
2022-11-21T06:03:44.343Z,0.33
2022-11-21T06:06:14.742Z,26.17
2022-11-21T06:08:44.822Z,14.00
2022-11-21T06:11:14.982Z,3.50
2022-11-21T06:13:43.423Z,0.80
2022-11-21T06:16:13.856Z,0.90
2022-11-21T06:18:43.712Z,1.30
2022-11-21T06:21:15.986Z,1.07
2022-11-21T06:23:44.939Z,1.50
2022-11-21T06:26:15.534Z,1.70
2022-11-21T06:28:45.325Z,1.50
2022-11-21T06:31:15.397Z,1.07
2022-11-21T06:33:44.705Z,1.10
2022-11-21T06:36:15.705Z,1.30
2022-11-21T06:38:44.562Z,1.40
2022-11-21T06:41:16.011Z,1.67
2022-11-21T06:43:44.617Z,2.00
2022-11-21T06:46:13.971Z,1.90
2022-11-21T06:48:43.762Z,1.30
2022-11-21T06:51:18.039Z,1.67
2022-11-21T06:53:47.018Z,1.90
2022-11-21T06:56:16.608Z,1.57
2022-11-21T06:58:45.520Z,1.03
2022-11-21T07:01:13.934Z,0.80
2022-11-21T07:03:42.562Z,1.10
2022-11-21T07:06:10.917Z,1.33
2022-11-21T07:08:41.340Z,1.57
2022-11-21T07:11:24.538Z,1.67
2022-11-21T07:13:53.529Z,1.00
2022-11-21T07:16:22.077Z,0.90
2022-11-21T07:18:50.450Z,0.60
2022-11-21T07:21:18.767Z,0.30
2022-11-21T07:23:48.742Z,0.50
2022-11-21T07:26:17.073Z,0.10
2022-11-21T07:28:45.597Z,0.20
2022-11-21T07:31:14.509Z,0.00
2022-11-21T07:33:44.333Z,0.33
2022-11-21T07:36:13.203Z,0.00
2022-11-21T07:38:42.344Z,0.10
2022-11-21T07:41:12.203Z,0.10
2022-11-21T07:43:40.571Z,0.43
2022-11-21T07:46:08.906Z,0.60
2022-11-21T07:48:37.434Z,0.70
2022-11-21T07:51:06.892Z,0.10
2022-11-21T07:53:35.285Z,0.00
2022-11-21T07:56:04.928Z,0.00
2022-11-21T07:58:34.725Z,0.20
2022-11-21T08:01:06.266Z,0.10
2022-11-21T08:03:35.509Z,0.20
2022-11-21T08:06:05.035Z,0.20
2022-11-21T08:08:33.584Z,0.20
2022-11-21T08:11:14.785Z,0.00
2022-11-21T08:13:44.503Z,0.20
2022-11-21T08:16:12.875Z,0.30
2022-11-21T08:18:41.207Z,0.30
2022-11-21T08:21:09.522Z,0.47
2022-11-21T08:23:37.930Z,0.30
2022-11-21T08:26:09.555Z,0.10
2022-11-21T08:28:37.915Z,0.03
2022-11-21T08:31:07.708Z,0.10
2022-11-21T08:33:36.142Z,0.00
2022-11-21T08:36:06.069Z,0.50
2022-11-21T08:38:34.754Z,0.20
2022-11-21T08:41:20.639Z,0.50
2022-11-21T08:43:49.219Z,0.30
2022-11-21T08:46:18.951Z,0.20
2022-11-21T08:48:47.340Z,0.00
2022-11-21T08:51:15.714Z,0.10
2022-11-21T08:53:44.050Z,0.10
2022-11-21T08:56:12.394Z,0.23
2022-11-21T08:58:40.837Z,0.20
2022-11-21T09:01:09.151Z,0.00
2022-11-21T09:03:38.919Z,0.10
2022-11-21T09:06:08.079Z,0.00
2022-11-21T09:08:36.494Z,0.40
2022-11-21T09:11:05.790Z,0.13
2022-11-21T09:13:34.457Z,0.30
2022-11-21T09:16:20.828Z,0.10
2022-11-21T09:18:52.936Z,0.30
2022-11-21T09:21:22.439Z,0.20
2022-11-21T09:23:50.872Z,0.17
2022-11-21T09:26:19.367Z,0.30
2022-11-21T09:28:47.689Z,0.13
2022-11-21T09:31:15.986Z,0.20
2022-11-21T09:33:44.378Z,0.23
2022-11-21T09:36:14.034Z,0.30
2022-11-21T09:38:42.481Z,1.53
2022-11-21T09:41:32.463Z,1.40
2022-11-21T09:44:07.849Z,1.13
2022-11-21T09:46:45.634Z,1.23
2022-11-21T09:49:15.893Z,1.70
2022-11-21T09:51:46.730Z,0.57
2022-11-21T09:54:20.349Z,1.00
2022-11-21T09:56:49.702Z,0.60
2022-11-21T09:59:31.004Z,0.90
2022-11-21T10:01:59.366Z,1.00
2022-11-21T10:04:28.852Z,1.40
2022-11-21T10:07:04.443Z,0.90
2022-11-21T10:09:48.240Z,0.77
2022-11-21T10:12:40.273Z,0.70
2022-11-21T10:15:27.845Z,0.60
2022-11-21T10:18:15.478Z,0.57
2022-11-21T10:20:55.734Z,0.97
2022-11-21T10:23:52.639Z,0.60
2022-11-21T10:26:30.664Z,0.70
2022-11-21T10:29:04.546Z,0.63
2022-11-21T10:31:39.157Z,0.73
2022-11-21T10:34:12.697Z,0.63
2022-11-21T10:36:44.406Z,0.70
2022-11-21T10:39:19.797Z,0.77
2022-11-21T10:41:52.780Z,0.80
2022-11-21T10:44:44.642Z,1.00
2022-11-21T10:47:27.302Z,1.27
2022-11-21T10:50:02.842Z,0.93
2022-11-21T10:52:37.350Z,0.60
2022-11-21T10:55:10.514Z,0.70
2022-11-21T10:57:45.057Z,0.67
2022-11-21T11:00:23.644Z,0.70
2022-11-21T11:03:08.832Z,0.70
2022-11-21T11:05:38.384Z,0.70
2022-11-21T11:08:09.379Z,1.20
2022-11-21T11:10:40.675Z,1.07
2022-11-21T11:13:49.941Z,0.93
2022-11-21T11:16:21.387Z,1.00
2022-11-21T11:18:56.661Z,0.87
2022-11-21T11:21:26.641Z,1.03
2022-11-21T11:24:06.709Z,1.10
2022-11-21T11:26:51.456Z,1.20
2022-11-21T11:29:21.637Z,1.30
2022-11-21T11:31:58.095Z,1.13
2022-11-21T11:34:30.611Z,1.10
2022-11-21T11:37:12.114Z,1.23
2022-11-21T11:39:48.108Z,0.83
2022-11-21T11:43:09.823Z,0.90
2022-11-21T11:46:11.469Z,0.90
2022-11-21T11:48:56.545Z,1.00
2022-11-21T11:51:34.594Z,0.97
2022-11-21T11:54:09.856Z,0.70
2022-11-21T11:56:39.058Z,0.50
2022-11-21T11:59:17.521Z,0.90
2022-11-21T12:01:52.608Z,0.57
2022-11-21T12:04:22.903Z,0.50
2022-11-21T12:09:53.274Z,0.30
2022-11-21T12:12:33.050Z,0.33
2022-11-21T12:15:30.939Z,0.20
2022-11-21T12:18:12.948Z,0.63
2022-11-21T12:20:53.296Z,1.00
2022-11-21T12:23:23.943Z,0.90
2022-11-21T12:26:06.129Z,0.87
2022-11-21T12:28:44.771Z,0.50
2022-11-21T12:31:20.925Z,0.40
2022-11-21T12:34:04.057Z,0.40
2022-11-21T12:36:42.119Z,0.40
2022-11-21T12:39:28.039Z,1.10
2022-11-21T12:42:25.386Z,0.40
2022-11-21T12:45:06.659Z,0.40
2022-11-21T12:48:14.413Z,0.57
2022-11-21T12:51:11.333Z,0.53
2022-11-21T12:54:04.806Z,0.60
2022-11-21T12:56:45.125Z,0.70
2022-11-21T12:59:16.314Z,0.30
2022-11-21T13:01:55.152Z,0.60
2022-11-21T13:04:29.330Z,0.33
2022-11-21T13:06:59.655Z,0.40
2022-11-21T13:09:31.604Z,0.97
2022-11-21T13:12:06.557Z,1.23
2022-11-21T13:14:43.386Z,1.03
2022-11-21T13:17:30.327Z,1.10
2022-11-21T13:20:03.365Z,0.87
2022-11-21T13:22:52.362Z,0.93
2022-11-21T13:25:47.377Z,0.80
2022-11-21T13:28:34.710Z,1.03
2022-11-21T13:31:24.514Z,1.07
2022-11-21T13:33:53.482Z,0.70
2022-11-21T13:36:44.159Z,0.73
2022-11-21T13:39:34.802Z,0.37
2022-11-21T13:42:31.373Z,0.80
2022-11-21T13:45:00.833Z,1.17
2022-11-21T13:48:05.109Z,1.30
2022-11-21T13:51:04.918Z,1.30
2022-11-21T13:53:58.432Z,2.13
2022-11-21T13:56:36.362Z,1.33
2022-11-21T13:59:26.333Z,0.73
2022-11-21T14:02:20.910Z,1.10
2022-11-21T14:05:04.727Z,0.90
2022-11-21T14:07:35.079Z,0.80
2022-11-21T14:10:18.679Z,0.80
2022-11-21T14:12:50.798Z,1.00
2022-11-21T14:15:25.984Z,1.20
2022-11-21T14:17:57.642Z,0.90
2022-11-21T14:20:28.426Z,1.00
2022-11-21T14:23:00.087Z,1.03
2022-11-21T14:25:38.296Z,1.07
2022-11-21T14:28:11.263Z,0.90
2022-11-21T14:30:41.586Z,0.90
2022-11-21T14:33:30.465Z,1.17
2022-11-21T14:36:03.448Z,1.37
2022-11-21T14:38:36.533Z,1.40
2022-11-21T14:41:28.345Z,1.00
2022-11-21T14:44:17.651Z,1.37
2022-11-21T14:46:47.469Z,1.40
2022-11-21T14:49:29.214Z,1.30
2022-11-21T14:52:07.350Z,1.20
2022-11-21T14:54:54.925Z,1.40
2022-11-21T14:57:37.682Z,1.40
2022-11-21T15:00:07.635Z,1.50
2022-11-21T15:02:36.239Z,1.70
2022-11-21T15:05:07.757Z,1.60
2022-11-21T15:07:41.355Z,1.00
2022-11-21T15:10:30.053Z,1.50
2022-11-21T15:13:04.272Z,1.10
2022-11-21T15:15:35.800Z,1.50
2022-11-21T15:20:59.006Z,1.43
2022-11-21T15:23:29.745Z,1.50
2022-11-21T15:26:01.335Z,1.30
2022-11-21T15:28:32.338Z,1.30
2022-11-21T15:31:19.811Z,2.03
2022-11-21T15:37:04.962Z,1.83
2022-11-21T15:39:34.501Z,2.50
2022-11-21T15:42:36.964Z,2.90
2022-11-21T15:45:23.962Z,3.00
2022-11-21T15:47:52.319Z,2.43
2022-11-21T15:50:24.555Z,2.40
2022-11-21T15:52:53.781Z,2.97
2022-11-21T15:55:25.092Z,2.60
2022-11-21T15:57:53.609Z,4.03
2022-11-21T16:00:23.501Z,3.30
2022-11-21T16:02:51.863Z,3.77
2022-11-21T16:05:20.178Z,20.07
2022-11-21T16:07:48.949Z,3.30
2022-11-21T16:10:25.899Z,3.60
2022-11-21T16:12:55.861Z,2.00
2022-11-21T16:15:25.748Z,1.83
2022-11-21T16:17:54.121Z,2.03
2022-11-21T16:20:23.039Z,2.63
2022-11-21T16:22:51.443Z,3.73
2022-11-21T16:25:19.862Z,2.83
2022-11-21T16:27:48.430Z,1.57
2022-11-21T16:30:16.914Z,2.10
2022-11-21T16:32:47.144Z,1.90
2022-11-21T16:35:15.581Z,2.00
2022-11-21T16:37:43.974Z,2.50
2022-11-21T16:40:12.953Z,2.20
2022-11-21T16:42:41.283Z,2.43
2022-11-21T16:45:10.356Z,1.90
2022-11-21T16:47:45.850Z,2.50
2022-11-21T16:50:18.821Z,2.50
2022-11-21T16:52:47.409Z,3.37
2022-11-21T16:55:15.930Z,3.23
2022-11-21T16:57:44.291Z,12.07
2022-11-21T17:00:13.636Z,18.50
2022-11-21T17:02:42.354Z,5.10
2022-11-21T17:05:11.333Z,2.50
2022-11-21T17:07:41.131Z,3.00
2022-11-21T17:10:10.505Z,2.30
2022-11-21T17:12:39.660Z,2.43
2022-11-21T17:15:11.145Z,2.50
2022-11-21T17:17:40.586Z,2.67
2022-11-21T17:20:10.685Z,1.93
2022-11-21T17:22:40.353Z,1.80
2022-11-21T17:25:09.597Z,1.30
2022-11-21T17:27:38.164Z,4.00
2022-11-21T17:30:07.785Z,1.90
2022-11-21T17:32:36.626Z,1.80
2022-11-21T17:35:05.652Z,2.50
2022-11-21T17:37:34.021Z,1.60
2022-11-21T17:40:03.929Z,2.07
2022-11-21T17:42:32.466Z,2.20
2022-11-21T17:45:00.875Z,1.80
2022-11-21T17:47:53.785Z,2.00
2022-11-21T17:50:31.033Z,1.87
2022-11-21T17:52:59.429Z,1.50
2022-11-21T17:55:29.492Z,1.77
2022-11-21T17:57:57.827Z,2.20
2022-11-21T18:00:26.465Z,2.23
2022-11-21T18:02:57.265Z,2.10
2022-11-21T18:05:25.744Z,2.37
2022-11-21T18:07:54.202Z,2.03
2022-11-21T18:10:42.269Z,2.50
2022-11-21T18:13:12.223Z,2.60
2022-11-21T18:15:40.613Z,3.97
2022-11-21T18:18:09.045Z,3.60
2022-11-21T18:20:37.377Z,3.13
2022-11-21T18:23:05.755Z,2.60
2022-11-21T18:25:36.252Z,2.23
2022-11-21T18:28:05.225Z,3.40
2022-11-21T18:30:34.976Z,2.97
2022-11-21T18:33:03.900Z,3.43
2022-11-21T18:35:32.510Z,3.20
2022-11-21T18:38:01.109Z,1.97
2022-11-21T18:40:29.593Z,1.70
2022-11-21T18:42:57.935Z,3.40
2022-11-21T18:45:26.370Z,3.23
2022-11-21T18:47:56.438Z,3.27
2022-11-21T18:50:24.777Z,5.30
2022-11-21T18:52:53.528Z,5.87
2022-11-21T18:55:23.042Z,7.07
2022-11-21T18:57:51.421Z,6.53
2022-11-21T19:00:20.034Z,5.60
2022-11-21T19:02:48.400Z,6.00
2022-11-21T19:05:20.707Z,5.50
2022-11-21T19:07:49.341Z,6.30
2022-11-21T19:10:42.149Z,6.50
2022-11-21T19:13:07.010Z,6.70
2022-11-21T19:15:38.291Z,5.43
2022-11-21T19:18:06.935Z,6.77
2022-11-21T19:20:37.118Z,6.53
2022-11-21T19:23:05.593Z,16.03
2022-11-21T19:25:35.716Z,7.50
2022-11-21T19:28:04.135Z,6.03
2022-11-21T19:30:32.483Z,5.77
2022-11-21T19:33:00.878Z,10.47
2022-11-21T19:35:29.227Z,10.67
2022-11-21T19:37:59.164Z,9.23
2022-11-21T19:40:47.638Z,7.50
2022-11-21T19:43:16.502Z,6.27
2022-11-21T19:45:45.175Z,7.00
2022-11-21T19:48:13.556Z,7.13
2022-11-21T19:50:47.736Z,6.67
2022-11-21T19:53:19.750Z,6.07
2022-11-21T19:55:48.119Z,5.53
2022-11-21T19:58:16.493Z,6.00
2022-11-21T20:00:46.621Z,6.23
2022-11-21T20:03:14.967Z,5.50
2022-11-21T20:05:43.294Z,3.73
2022-11-21T20:08:17.481Z,5.13
2022-11-21T20:10:47.838Z,4.37
2022-11-21T20:13:16.181Z,5.47
2022-11-21T20:15:44.630Z,5.63
2022-11-21T20:18:13.562Z,6.43
2022-11-21T20:20:41.931Z,6.47
2022-11-21T20:23:10.345Z,6.47
2022-11-21T20:25:38.950Z,6.00
2022-11-21T20:28:11.759Z,6.57
2022-11-21T20:30:40.285Z,6.13
2022-11-21T20:33:11.473Z,7.10
2022-11-21T20:35:42.094Z,5.87
2022-11-21T20:38:10.445Z,6.90
2022-11-21T20:40:39.012Z,6.00
2022-11-21T20:43:08.941Z,6.07
2022-11-21T20:48:27.165Z,5.97
2022-11-21T20:53:58.598Z,5.43
2022-11-21T20:56:32.665Z,5.73
2022-11-21T20:59:02.780Z,6.20
2022-11-21T21:01:32.052Z,5.37
2022-11-21T21:04:00.392Z,6.30
2022-11-21T21:06:28.812Z,5.27
2022-11-21T21:08:57.194Z,5.67
2022-11-21T21:11:50.339Z,5.73
2022-11-21T21:14:15.713Z,5.67
2022-11-21T21:16:44.554Z,4.03
2022-11-21T21:19:12.952Z,4.20
2022-11-21T21:21:41.799Z,4.23
2022-11-21T21:24:12.499Z,4.03
2022-11-21T21:26:43.551Z,4.00
2022-11-21T21:29:13.372Z,3.80
2022-11-21T21:31:50.083Z,4.03
2022-11-21T21:34:20.195Z,3.50
2022-11-21T21:36:48.952Z,3.10
2022-11-21T21:39:17.332Z,3.33
2022-11-21T21:41:46.660Z,3.17
2022-11-21T21:44:16.697Z,2.10
2022-11-21T21:46:46.810Z,1.70
2022-11-21T21:49:15.722Z,1.47
2022-11-21T21:51:44.080Z,1.30
2022-11-21T21:54:18.507Z,1.70
2022-11-21T21:56:47.022Z,1.80
2022-11-21T21:59:17.977Z,2.67
2022-11-21T22:01:47.899Z,2.60
2022-11-21T22:04:16.272Z,2.37
2022-11-21T22:06:44.830Z,1.60
2022-11-21T22:09:13.257Z,1.93
2022-11-21T22:11:41.608Z,1.83
2022-11-21T22:14:14.151Z,1.73
2022-11-21T22:16:43.360Z,1.90
2022-11-21T22:19:13.335Z,1.77
2022-11-21T22:21:41.740Z,1.83
2022-11-21T22:24:30.002Z,2.00
2022-11-21T22:26:58.476Z,1.90
2022-11-21T22:29:26.800Z,2.00
2022-11-21T22:31:55.253Z,1.90
2022-11-21T22:34:25.133Z,2.07
2022-11-21T22:36:53.522Z,1.73
2022-11-21T22:39:21.923Z,1.87
2022-11-21T22:41:50.304Z,2.10
2022-11-21T22:44:19.290Z,1.90
2022-11-21T22:46:47.712Z,2.10
2022-11-21T22:49:16.025Z,2.03
2022-11-21T22:51:45.959Z,2.27
2022-11-21T22:54:14.424Z,1.90
2022-11-21T22:56:43.004Z,2.10
2022-11-21T22:59:13.418Z,2.10
2022-11-21T23:01:41.855Z,2.43
2022-11-21T23:04:14.506Z,2.27
2022-11-21T23:06:46.006Z,2.50
2022-11-21T23:09:14.540Z,2.30
2022-11-21T23:11:42.858Z,1.73
2022-11-21T23:14:11.203Z,2.40
2022-11-21T23:16:39.497Z,2.13
2022-11-21T23:19:08.037Z,2.87
2022-11-21T23:21:36.698Z,2.70
2022-11-21T23:24:07.370Z,2.40
2022-11-21T23:26:35.766Z,2.50
2022-11-21T23:29:08.614Z,2.03
2022-11-21T23:31:37.382Z,2.10
2022-11-21T23:34:05.935Z,2.00
2022-11-21T23:36:34.311Z,2.10
2022-11-21T23:39:02.743Z,1.97
2022-11-21T23:41:32.464Z,1.83
2022-11-21T23:44:02.450Z,2.47
2022-11-21T23:46:31.414Z,2.30
2022-11-21T23:48:59.924Z,2.20
2022-11-21T23:51:28.279Z,2.20
2022-11-21T23:53:56.627Z,2.10
2022-11-21T23:56:24.904Z,2.17
2022-11-21T23:58:54.602Z,2.73
